أريحا, الأردن

05:16 PM EET on لبراêر 27, 2015 (GMT +0200)
Ben Gurion | Change Station
CLOSE
Current Station
Airport
Location: Tel Aviv,
Elevation: 161 ft
Nearby Weather Stations

Elev 161 ft 32.01 °N, 34.89 °E | Updated 26 minutes ago

Clear
صافية
81 °F
Feels Like 81 °F
N
6
ريح متغير ريح from غرب

هذا اليوم
High -- | Low -- °F
--% Chance of Precip.
Yesterday
High -- | Low -- °F
Precip. -- في
6:08 AM 5:33 PM
الأحدب الأول, 69% visible
الضغط 29.89 في
وضوح الرؤية -9999.0 أميال
سحابات
نقطة الندى 45 °F
الرطوبة 28%
Rainfall 0.00 في
عمق الثلج Not available.
الأشعة فوق البنفسجية Not available.
Pollen Not available.
جودة الهواء Not available.
Flu Activity Not available.
METAR LLBG 271450Z 27005KT CAVOK 27/07 Q1012 NOSIG

More Conditions Fewer Conditions

الضغط 29.89 في
وضوح الرؤية -9999.0 أميال
سحابات
نقطة الندى 45 °F
الرطوبة 28%
Rainfall 0.00 في
عمق الثلج Not available.
الأشعة فوق البنفسجية Not available.
Pollen Not available.
جودة الهواء Not available.
Flu Activity Not available.
METAR LLBG 271450Z 27005KT CAVOK 27/07 Q1012 NOSIG

More Conditions Fewer Conditions

10-Day Weather Forecast

Almanac

علم الفلك

Feb. 27, 2015 Rise Set
Actual Time
Civil Twilight
Nautical Twilight
Astronomical Twilight
قمر
Length Of Visible Light
طول الیوم
Tomorrow will be .
, % of the Moon is Illuminated

Today's Extremes

Country Highs Country Lows

Community

WunderPhotos

Upload Photos

1,800,692 photos uploaded!

WunderBlogs® & News

Nearby

جودة الهواء

  جودة الهواء AQ Index Pollutant
Not available.

عمق الثلج

Station Depth Elevation

Earthquake Activity

City Distance Mag. Time & Date
Minimum magnitude displayed is 2.5.

Coastal Water Temperatures

مكان درجات الحرارة

Nearby Weather Stations